Time;durP1;ratioP1;P1;durP2;ratioP2;P2;SDS_P1;SDS_P2;PMS_P1;PMS_P2;Temp;Humidity;BMP_temperature;BMP_pressure;BME280_temperature;BME280_humidity;BME280_pressure;Samples;Min_cycle;Max_cycle;Signal;HPM_P1;HPM_P2
2024/01/25 00:01:19;;;;;;;95.82;12.63;;;8.20;99.90;;;;;;5053268;28;20025;-73
2024/01/25 00:03:44;;;;;;;127.40;14.50;;;8.20;99.90;;;;;;5053241;28;20047;-73
2024/01/25 00:06:10;;;;;;;98.60;12.85;;;8.20;99.90;;;;;;5053263;28;20500;-74
2024/01/25 00:08:36;;;;;;;107.05;12.27;;;8.10;99.90;;;;;;5053996;28;20382;-73
2024/01/25 00:11:02;;;;;;;117.72;15.15;;;8.20;99.90;;;;;;5053631;28;20035;-74
2024/01/25 00:13:28;;;;;;;114.15;13.82;;;8.20;99.90;;;;;;5054121;28;20079;-73
2024/01/25 00:15:53;;;;;;;130.48;11.95;;;8.20;99.90;;;;;;5054134;28;20033;-73
2024/01/25 00:18:19;;;;;;;111.70;13.75;;;8.10;99.90;;;;;;5053405;28;20032;-74
2024/01/25 00:20:45;;;;;;;117.25;14.13;;;8.10;99.90;;;;;;5053918;28;20102;-73
2024/01/25 00:23:11;;;;;;;123.18;13.02;;;8.10;99.90;;;;;;5053603;28;20035;-74
2024/01/25 00:25:36;;;;;;;99.95;13.00;;;8.10;99.90;;;;;;5053562;28;20028;-73
2024/01/25 00:28:02;;;;;;;100.55;12.52;;;8.10;99.90;;;;;;5053313;28;20174;-73
2024/01/25 00:30:28;;;;;;;121.15;15.88;;;8.10;99.90;;;;;;5053184;28;20040;-74
2024/01/25 00:32:53;;;;;;;104.55;14.15;;;8.00;99.90;;;;;;5053353;28;20098;-74
2024/01/25 00:35:19;;;;;;;107.53;12.82;;;8.10;99.90;;;;;;5053415;28;20451;-74
2024/01/25 00:37:45;;;;;;;110.97;13.30;;;8.10;99.90;;;;;;5052716;28;20458;-74
2024/01/25 00:40:13;;;;;;;116.40;14.38;;;8.10;99.90;;;;;;5052576;28;20099;-74
2024/01/25 00:42:43;;;;;;;116.78;14.48;;;8.10;99.90;;;;;;5052741;28;20029;-73
2024/01/25 00:45:09;;;;;;;105.20;12.80;;;8.10;99.90;;;;;;5052600;28;20051;-74
2024/01/25 00:47:35;;;;;;;107.63;13.27;;;8.10;99.90;;;;;;5052311;28;20013;-74
2024/01/25 00:50:01;;;;;;;112.97;14.60;;;8.10;99.90;;;;;;5052442;28;20035;-73
2024/01/25 00:52:27;;;;;;;105.95;11.73;;;8.00;99.90;;;;;;5052249;28;20048;-73
2024/01/25 00:54:53;;;;;;;114.18;12.85;;;8.00;99.90;;;;;;5052281;28;20036;-74
2024/01/25 00:57:19;;;;;;;93.95;11.98;;;8.00;99.90;;;;;;5052211;28;20028;-73
2024/01/25 00:59:45;;;;;;;113.05;14.00;;;8.10;99.90;;;;;;5053421;28;20497;-73
2024/01/25 01:02:13;;;;;;;112.13;13.68;;;8.10;99.90;;;;;;5050714;28;20027;-74
2024/01/25 01:04:40;;;;;;;93.00;11.35;;;8.10;99.90;;;;;;5053699;28;20013;-76
2024/01/25 01:07:06;;;;;;;104.22;12.38;;;8.10;99.90;;;;;;5054307;28;20391;-74
2024/01/25 01:09:32;;;;;;;103.40;11.70;;;8.10;99.90;;;;;;5059257;28;20033;-74
2024/01/25 01:11:58;;;;;;;109.95;12.27;;;8.10;99.90;;;;;;5066925;28;20035;-75
2024/01/25 01:14:24;;;;;;;102.70;12.73;;;8.10;99.90;;;;;;5069709;28;20044;-74
2024/01/25 01:16:50;;;;;;;91.82;10.77;;;8.10;99.90;;;;;;5058541;28;20120;-74
2024/01/25 01:19:16;;;;;;;83.15;11.38;;;8.10;99.90;;;;;;5056596;28;20510;-74
2024/01/25 01:21:43;;;;;;;92.18;11.65;;;8.10;99.90;;;;;;5056933;28;20033;-73
2024/01/25 01:24:10;;;;;;;109.15;12.48;;;8.10;99.90;;;;;;5070387;28;20025;-72
2024/01/25 01:26:36;;;;;;;109.35;12.98;;;8.10;99.90;;;;;;5056981;28;20017;-74
2024/01/25 01:29:01;;;;;;;104.88;12.10;;;8.10;99.90;;;;;;5055361;28;20435;-73
2024/01/25 01:31:27;;;;;;;95.93;13.30;;;8.10;99.90;;;;;;5065211;28;20013;-75
2024/01/25 01:33:53;;;;;;;106.03;12.25;;;8.00;99.90;;;;;;5077071;28;20025;-76
2024/01/25 01:36:19;;;;;;;95.22;10.85;;;8.00;99.90;;;;;;5076774;28;20006;-75
2024/01/25 01:38:44;;;;;;;110.80;12.50;;;8.10;99.90;;;;;;5076286;28;20059;-73
2024/01/25 01:41:13;;;;;;;115.43;13.75;;;8.00;99.90;;;;;;5075323;28;20025;-74
2024/01/25 01:43:39;;;;;;;102.93;11.25;;;8.00;99.90;;;;;;5073679;28;20001;-73
2024/01/25 01:46:36;;;;;;;106.20;12.13;;;8.00;99.90;;;;;;5067489;28;20036;-73
2024/01/25 01:49:03;;;;;;;95.43;11.98;;;8.10;99.90;;;;;;5051939;28;20021;-73
2024/01/25 01:51:31;;;;;;;97.15;11.55;;;8.10;99.90;;;;;;5051680;28;20028;-72
2024/01/25 01:53:57;;;;;;;87.28;11.13;;;8.10;99.90;;;;;;5051465;28;20029;-73
2024/01/25 01:56:26;;;;;;;81.47;10.32;;;8.10;99.90;;;;;;5051321;28;20021;-73
2024/01/25 01:58:53;;;;;;;98.25;11.02;;;8.10;99.90;;;;;;5051598;28;20496;-73
2024/01/25 02:01:20;;;;;;;94.15;11.43;;;8.10;99.90;;;;;;5051488;28;20071;-73
2024/01/25 02:03:45;;;;;;;102.45;11.20;;;8.20;99.90;;;;;;5051431;28;20017;-74
2024/01/25 02:06:11;;;;;;;97.63;10.77;;;8.20;99.90;;;;;;5051183;28;20109;-72
2024/01/25 02:08:37;;;;;;;96.00;11.70;;;8.20;99.90;;;;;;5050665;28;20420;-73
2024/01/25 02:11:02;;;;;;;91.18;11.13;;;8.20;99.90;;;;;;5051550;28;20480;-73
2024/01/25 02:13:28;;;;;;;99.03;10.32;;;8.20;99.90;;;;;;5050135;28;20051;-73
2024/01/25 02:15:53;;;;;;;87.80;12.75;;;8.20;99.90;;;;;;5051260;28;20388;-74
2024/01/25 02:18:19;;;;;;;99.35;10.80;;;8.20;99.90;;;;;;5051215;28;20033;-75
2024/01/25 02:20:45;;;;;;;76.95;10.25;;;8.20;99.90;;;;;;5051566;28;20025;-74
2024/01/25 02:23:10;;;;;;;101.10;11.45;;;8.30;99.90;;;;;;5055183;28;20100;-73
2024/01/25 02:25:36;;;;;;;98.78;11.73;;;8.30;99.90;;;;;;5055120;28;20091;-74
2024/01/25 02:28:01;;;;;;;103.45;11.20;;;8.30;99.90;;;;;;5054675;28;20033;-75
2024/01/25 02:30:27;;;;;;;110.60;12.35;;;8.30;99.90;;;;;;5055179;28;20104;-74
2024/01/25 02:32:53;;;;;;;99.43;10.90;;;8.30;99.90;;;;;;5054838;28;20082;-74
2024/01/25 02:35:18;;;;;;;95.53;12.45;;;8.30;99.90;;;;;;5055386;28;20396;-76
2024/01/25 02:37:44;;;;;;;91.15;10.63;;;8.30;99.90;;;;;;5063497;28;20090;-76
2024/01/25 02:40:10;;;;;;;83.60;11.27;;;8.30;99.90;;;;;;5054647;28;20052;-74
2024/01/25 02:42:36;;;;;;;103.20;11.60;;;8.30;99.90;;;;;;5054768;28;20037;-75
2024/01/25 02:45:01;;;;;;;81.10;11.02;;;8.30;99.90;;;;;;5054528;28;20033;-75
2024/01/25 02:47:27;;;;;;;79.80;10.90;;;8.30;99.90;;;;;;5054097;28;20114;-74
2024/01/25 02:49:52;;;;;;;101.38;11.82;;;8.30;99.90;;;;;;5056111;28;20047;-75
2024/01/25 02:52:18;;;;;;;87.53;10.48;;;8.30;99.90;;;;;;5056640;28;20033;-76
2024/01/25 02:54:43;;;;;;;92.65;10.75;;;8.40;99.90;;;;;;5055168;28;20035;-75
2024/01/25 02:57:10;;;;;;;93.45;11.25;;;8.30;99.90;;;;;;5053637;28;20021;-75
2024/01/25 02:59:35;;;;;;;84.50;11.35;;;8.30;99.90;;;;;;5054279;28;20132;-76
2024/01/25 03:02:01;;;;;;;102.05;11.43;;;8.20;99.90;;;;;;5054457;28;20104;-74
2024/01/25 03:04:26;;;;;;;91.45;12.40;;;8.30;99.90;;;;;;5052863;28;20017;-73
2024/01/25 03:06:52;;;;;;;93.82;10.82;;;8.30;99.90;;;;;;5053772;28;20428;-73
2024/01/25 03:09:17;;;;;;;97.13;11.55;;;8.30;99.90;;;;;;5054036;28;20543;-74
2024/01/25 03:11:43;;;;;;;108.88;12.48;;;8.30;99.90;;;;;;5054206;28;20021;-74
2024/01/25 03:14:09;;;;;;;93.43;10.98;;;8.20;99.90;;;;;;5054089;28;20100;-73
2024/01/25 03:16:34;;;;;;;99.82;11.38;;;8.30;99.90;;;;;;5053543;28;20476;-74
2024/01/25 03:19:00;;;;;;;82.82;10.35;;;8.30;99.90;;;;;;5054279;28;20025;-75
2024/01/25 03:21:25;;;;;;;88.43;10.60;;;8.30;99.90;;;;;;5054214;28;20024;-74
2024/01/25 03:23:51;;;;;;;118.63;12.73;;;8.20;99.90;;;;;;5054309;28;20032;-75
2024/01/25 03:26:17;;;;;;;113.13;13.20;;;8.20;99.90;;;;;;5053457;28;20044;-73
2024/01/25 03:28:42;;;;;;;94.32;10.90;;;8.20;99.90;;;;;;5053680;28;20032;-73
2024/01/25 03:31:08;;;;;;;101.00;11.55;;;8.20;99.90;;;;;;5053549;28;20036;-73
2024/01/25 03:33:33;;;;;;;92.45;12.07;;;8.20;99.90;;;;;;5053110;28;20041;-73
2024/01/25 03:36:06;;;;;;;100.47;13.23;;;8.30;99.90;;;;;;5052821;28;20017;-73
2024/01/25 03:38:31;;;;;;;96.32;11.57;;;8.20;99.90;;;;;;5052910;28;20481;-73
2024/01/25 03:40:58;;;;;;;94.07;11.18;;;8.20;99.90;;;;;;5053199;28;20024;-73
2024/01/25 03:43:25;;;;;;;99.40;12.20;;;8.20;99.90;;;;;;5067367;28;20050;-73
2024/01/25 03:45:50;;;;;;;96.72;11.43;;;8.20;99.90;;;;;;5072822;28;20418;-74
2024/01/25 03:48:16;;;;;;;101.40;12.07;;;8.20;99.90;;;;;;5072817;28;20028;-74
2024/01/25 03:50:42;;;;;;;90.55;12.18;;;8.20;99.90;;;;;;5073050;28;20413;-73
2024/01/25 03:53:07;;;;;;;92.80;11.20;;;8.30;99.90;;;;;;5072878;28;20047;-74
2024/01/25 03:55:33;;;;;;;104.70;11.13;;;8.20;99.90;;;;;;5072879;28;20050;-73
2024/01/25 03:57:59;;;;;;;103.65;12.35;;;8.30;99.90;;;;;;5071935;28;20035;-73
2024/01/25 04:00:24;;;;;;;99.90;10.43;;;8.20;99.90;;;;;;5073154;28;20032;-74
2024/01/25 04:02:50;;;;;;;90.72;10.93;;;8.20;99.90;;;;;;5072449;28;20047;-75
2024/01/25 04:05:16;;;;;;;88.78;11.27;;;8.20;99.90;;;;;;5072794;28;20493;-75
2024/01/25 04:07:41;;;;;;;96.63;11.20;;;8.20;99.90;;;;;;5064178;28;20025;-74
2024/01/25 04:10:07;;;;;;;105.45;13.43;;;8.20;99.90;;;;;;5052954;28;20017;-74
2024/01/25 04:12:33;;;;;;;97.63;13.05;;;8.20;99.90;;;;;;5052932;28;20074;-73
2024/01/25 04:14:59;;;;;;;108.75;12.18;;;8.20;99.90;;;;;;5052648;28;20155;-73
2024/01/25 04:17:25;;;;;;;107.28;12.40;;;8.20;99.90;;;;;;5052005;28;20021;-75
2024/01/25 04:19:51;;;;;;;101.93;11.77;;;8.20;99.90;;;;;;5052365;28;20187;-75
2024/01/25 04:22:16;;;;;;;94.60;11.48;;;8.30;99.90;;;;;;5052936;28;20028;-73
2024/01/25 04:24:43;;;;;;;112.68;13.25;;;8.20;99.90;;;;;;5052938;28;20472;-72
2024/01/25 04:27:09;;;;;;;94.13;10.52;;;8.20;99.90;;;;;;5052086;28;20067;-72
2024/01/25 04:29:39;;;;;;;96.03;11.63;;;8.20;99.90;;;;;;5052510;28;20146;-74
2024/01/25 04:32:05;;;;;;;108.30;12.98;;;8.20;99.90;;;;;;5052779;28;20023;-74
2024/01/25 04:34:31;;;;;;;98.75;12.48;;;8.20;99.90;;;;;;5052031;28;20605;-73
2024/01/25 04:36:57;;;;;;;97.68;11.25;;;8.20;99.90;;;;;;5051909;28;20033;-73
2024/01/25 04:39:22;;;;;;;115.50;11.73;;;8.20;99.90;;;;;;5052313;28;20033;-72
2024/01/25 04:41:48;;;;;;;106.30;11.18;;;8.20;99.90;;;;;;5052165;28;20021;-73
2024/01/25 04:44:14;;;;;;;82.97;10.73;;;8.20;99.90;;;;;;5051623;28;20158;-74
2024/01/25 04:46:39;;;;;;;100.75;12.65;;;8.20;99.90;;;;;;5051377;28;20428;-74
2024/01/25 04:49:05;;;;;;;87.90;10.90;;;8.20;99.90;;;;;;5052749;28;20021;-76
2024/01/25 04:51:30;;;;;;;95.13;11.38;;;8.10;99.90;;;;;;5052056;28;20029;-73
2024/01/25 04:53:56;;;;;;;95.80;10.73;;;8.10;99.90;;;;;;5052332;28;20154;-74
2024/01/25 04:56:21;;;;;;;92.80;11.88;;;8.10;99.90;;;;;;5052623;28;20033;-75
2024/01/25 04:58:47;;;;;;;101.80;12.45;;;8.10;99.90;;;;;;5050974;28;20029;-75
2024/01/25 05:01:12;;;;;;;110.65;13.88;;;8.10;99.90;;;;;;5051836;28;20543;-75
2024/01/25 05:03:38;;;;;;;100.97;11.57;;;8.10;99.90;;;;;;5052572;28;20032;-75
2024/01/25 05:06:04;;;;;;;95.80;11.10;;;8.10;99.90;;;;;;5052635;28;20100;-75
2024/01/25 05:08:29;;;;;;;86.60;10.27;;;8.00;99.90;;;;;;5052139;28;20025;-77
2024/01/25 05:10:55;;;;;;;95.50;11.18;;;8.00;99.90;;;;;;5052420;28;20042;-73
2024/01/25 05:13:20;;;;;;;90.47;10.98;;;8.00;99.90;;;;;;5052597;28;20482;-74
2024/01/25 05:15:46;;;;;;;101.82;11.57;;;8.00;99.90;;;;;;5051898;28;20036;-71
2024/01/25 05:18:12;;;;;;;115.95;12.77;;;7.90;99.90;;;;;;5052066;28;20029;-73
2024/01/25 05:20:37;;;;;;;91.43;12.00;;;7.90;99.90;;;;;;5052487;28;20021;-73
2024/01/25 05:23:04;;;;;;;92.07;10.93;;;7.80;99.90;;;;;;5052596;28;20469;-74
2024/01/25 05:25:30;;;;;;;115.90;11.63;;;7.80;99.90;;;;;;5051555;28;20507;-72
2024/01/25 05:27:56;;;;;;;115.85;12.70;;;7.70;99.90;;;;;;5057258;28;20017;-74
2024/01/25 05:30:23;;;;;;;123.13;11.32;;;7.70;99.90;;;;;;5055236;28;20029;-75
2024/01/25 05:32:49;;;;;;;111.07;12.27;;;7.70;99.90;;;;;;5055659;28;20060;-73
2024/01/25 05:35:15;;;;;;;96.55;10.85;;;7.70;99.90;;;;;;5053485;28;20048;-73
2024/01/25 05:37:41;;;;;;;100.05;11.32;;;7.70;99.90;;;;;;5050902;28;20025;-76
2024/01/25 05:40:09;;;;;;;110.15;11.27;;;7.70;99.90;;;;;;5055072;28;20024;-77
2024/01/25 05:42:35;;;;;;;92.22;11.10;;;7.70;99.90;;;;;;5059868;28;20017;-78
2024/01/25 05:45:01;;;;;;;86.22;12.40;;;7.70;99.90;;;;;;5070384;28;20086;-78
2024/01/25 05:47:26;;;;;;;120.43;12.80;;;7.70;99.90;;;;;;5070639;28;20071;-76
2024/01/25 05:49:52;;;;;;;94.63;10.68;;;7.70;99.90;;;;;;5075313;28;20051;-78
2024/01/25 05:52:18;;;;;;;109.20;13.10;;;7.80;99.90;;;;;;5074875;28;20058;-78
2024/01/25 05:54:43;;;;;;;98.53;11.07;;;7.70;99.90;;;;;;5074447;28;20021;-75
2024/01/25 05:57:09;;;;;;;91.82;10.57;;;7.70;99.90;;;;;;5072681;28;20032;-74
2024/01/25 05:59:35;;;;;;;85.10;10.70;;;7.80;99.90;;;;;;5076785;28;20028;-73
2024/01/25 06:02:01;;;;;;;89.32;10.70;;;7.70;99.90;;;;;;5078437;28;20089;-74
2024/01/25 06:04:26;;;;;;;88.95;11.43;;;7.80;99.90;;;;;;5073526;28;20056;-77
2024/01/25 06:06:52;;;;;;;98.13;11.80;;;7.80;99.90;;;;;;5062413;28;20093;-74
2024/01/25 06:09:17;;;;;;;92.50;11.35;;;7.80;99.90;;;;;;5062265;28;20029;-76
2024/01/25 06:11:43;;;;;;;97.30;10.93;;;7.80;99.90;;;;;;5063117;28;20062;-76
2024/01/25 06:14:09;;;;;;;95.30;12.07;;;7.90;99.90;;;;;;5062158;28;20049;-76
2024/01/25 06:16:34;;;;;;;95.78;10.93;;;7.80;99.90;;;;;;5059429;28;20475;-75
2024/01/25 06:19:02;;;;;;;93.05;10.95;;;7.90;99.90;;;;;;5057675;28;20098;-79
2024/01/25 06:21:27;;;;;;;88.07;11.00;;;7.90;99.90;;;;;;5059810;28;20021;-78
2024/01/25 06:23:53;;;;;;;103.88;11.75;;;7.90;99.90;;;;;;5058966;28;20086;-75
2024/01/25 06:26:19;;;;;;;83.88;9.43;;;8.00;99.90;;;;;;5055176;28;20075;-75
2024/01/25 06:28:45;;;;;;;82.82;9.40;;;7.90;99.90;;;;;;5057867;28;20439;-78
2024/01/25 06:31:12;;;;;;;92.75;9.88;;;8.00;99.90;;;;;;5060124;28;20111;-75
2024/01/25 06:33:37;;;;;;;104.57;11.82;;;7.90;99.90;;;;;;5059870;28;20021;-74
2024/01/25 06:36:03;;;;;;;100.28;11.93;;;7.90;99.90;;;;;;5060708;28;20029;-75
2024/01/25 06:38:28;;;;;;;74.90;9.90;;;7.90;99.90;;;;;;5055282;28;20056;-76
2024/01/25 06:40:54;;;;;;;87.70;10.50;;;7.90;99.90;;;;;;5055743;28;20403;-76
2024/01/25 06:43:20;;;;;;;91.30;11.23;;;7.90;99.90;;;;;;5055655;28;20061;-75
2024/01/25 06:45:45;;;;;;;86.30;11.75;;;7.90;99.90;;;;;;5053204;28;20466;-75
2024/01/25 06:48:11;;;;;;;77.88;10.15;;;7.90;99.90;;;;;;5055031;28;20033;-75
2024/01/25 06:50:37;;;;;;;101.85;11.15;;;7.90;99.90;;;;;;5057171;28;20068;-76
2024/01/25 06:53:03;;;;;;;106.32;11.75;;;7.90;99.90;;;;;;5053537;28;20025;-76
2024/01/25 06:55:29;;;;;;;82.80;10.82;;;7.90;99.90;;;;;;5054981;28;20029;-76
2024/01/25 06:57:54;;;;;;;92.82;10.18;;;7.90;99.90;;;;;;5054716;28;20047;-75
2024/01/25 07:00:20;;;;;;;90.03;11.60;;;7.90;99.90;;;;;;5055693;28;20035;-76
2024/01/25 07:02:47;;;;;;;90.32;11.05;;;7.90;99.90;;;;;;5054066;28;20103;-76
2024/01/25 07:05:12;;;;;;;92.05;10.98;;;7.90;99.90;;;;;;5054854;28;20021;-76
2024/01/25 07:07:39;;;;;;;92.78;10.88;;;7.90;99.90;;;;;;5052408;28;20472;-76
2024/01/25 07:10:06;;;;;;;96.80;11.07;;;7.90;99.90;;;;;;5054439;28;20399;-76
2024/01/25 07:12:31;;;;;;;87.15;10.68;;;7.90;99.90;;;;;;5053583;28;20033;-74
2024/01/25 07:14:57;;;;;;;91.53;11.48;;;7.90;99.90;;;;;;5053650;28;20031;-75
2024/01/25 07:17:23;;;;;;;111.03;12.90;;;8.00;99.90;;;;;;5053356;28;20041;-72
2024/01/25 07:19:48;;;;;;;96.32;11.52;;;8.00;99.90;;;;;;5053829;28;20024;-76
2024/01/25 07:22:15;;;;;;;94.03;10.80;;;7.90;99.90;;;;;;5053590;28;20112;-75
2024/01/25 07:24:41;;;;;;;81.68;10.32;;;7.90;99.90;;;;;;5053609;28;20032;-75
2024/01/25 07:27:06;;;;;;;98.03;11.10;;;7.90;99.90;;;;;;5053302;28;20476;-75
2024/01/25 07:29:32;;;;;;;90.20;10.77;;;8.00;99.90;;;;;;5053476;28;20082;-75
2024/01/25 07:31:57;;;;;;;83.60;10.48;;;7.90;99.90;;;;;;5053251;28;20025;-74
2024/01/25 07:34:23;;;;;;;87.13;10.52;;;8.00;99.90;;;;;;5053355;28;20021;-75
2024/01/25 07:36:48;;;;;;;96.47;10.85;;;8.00;99.90;;;;;;5053779;28;20025;-74
2024/01/25 07:39:14;;;;;;;107.63;12.95;;;8.00;99.90;;;;;;5053262;28;20033;-74
2024/01/25 07:41:40;;;;;;;101.80;11.45;;;7.90;99.90;;;;;;5054420;28;20025;-77
2024/01/25 07:44:06;;;;;;;93.78;11.13;;;7.90;99.90;;;;;;5054305;28;20025;-73
2024/01/25 07:46:31;;;;;;;94.50;10.80;;;7.90;99.90;;;;;;5054041;28;20045;-75
2024/01/25 07:48:57;;;;;;;90.63;11.27;;;7.90;99.90;;;;;;5054182;28;20036;-76
2024/01/25 07:51:22;;;;;;;108.20;11.70;;;7.90;99.90;;;;;;5053393;28;20472;-73
2024/01/25 07:53:48;;;;;;;76.13;10.15;;;8.00;99.90;;;;;;5052925;28;20061;-75
2024/01/25 07:56:14;;;;;;;88.82;10.10;;;8.00;99.90;;;;;;5051632;28;20021;-73
2024/01/25 07:58:40;;;;;;;95.88;11.43;;;8.00;99.90;;;;;;5052860;28;20392;-73
2024/01/25 08:01:06;;;;;;;105.78;12.00;;;8.00;99.90;;;;;;5051259;28;20025;-72
2024/01/25 08:03:32;;;;;;;84.32;11.50;;;8.10;99.90;;;;;;5053314;28;20504;-76
2024/01/25 08:05:59;;;;;;;92.25;10.57;;;8.00;99.90;;;;;;5053799;28;20017;-76
2024/01/25 08:08:24;;;;;;;89.60;11.80;;;8.00;99.90;;;;;;5054774;28;20032;-78
2024/01/25 08:10:50;;;;;;;96.55;9.77;;;8.10;99.90;;;;;;5053896;28;20036;-78
2024/01/25 08:13:15;;;;;;;104.60;11.77;;;8.10;99.90;;;;;;5053877;28;20120;-74
2024/01/25 08:15:41;;;;;;;97.70;11.40;;;8.10;99.90;;;;;;5052627;28;20059;-74
2024/01/25 08:18:07;;;;;;;92.43;10.45;;;8.10;99.90;;;;;;5051661;28;20025;-75
2024/01/25 08:20:33;;;;;;;87.80;11.20;;;8.10;99.90;;;;;;5052081;28;20530;-74
2024/01/25 08:22:59;;;;;;;85.55;11.23;;;8.20;99.90;;;;;;5052500;28;20087;-74
2024/01/25 08:25:25;;;;;;;89.63;9.60;;;8.20;99.90;;;;;;5052199;28;20472;-73
2024/01/25 08:27:50;;;;;;;99.50;11.73;;;8.20;99.90;;;;;;5052561;28;20083;-77
2024/01/25 08:30:16;;;;;;;89.93;10.85;;;8.20;99.90;;;;;;5064676;28;20028;-77
2024/01/25 08:32:42;;;;;;;76.43;9.90;;;8.30;99.90;;;;;;5061096;28;20028;-77
2024/01/25 08:35:10;;;;;;;98.68;10.27;;;8.20;99.90;;;;;;5066595;28;20035;-77
2024/01/25 08:37:44;;;;;;;82.25;9.68;;;8.30;99.90;;;;;;5063768;28;20044;-77
2024/01/25 08:40:19;;;;;;;82.18;10.80;;;8.30;99.90;;;;;;5055963;28;20091;-75
2024/01/25 08:42:45;;;;;;;73.30;10.95;;;8.30;99.90;;;;;;5055195;28;20025;-77
2024/01/25 08:45:10;;;;;;;104.10;12.57;;;8.30;99.90;;;;;;5054654;28;20546;-78
2024/01/25 08:47:36;;;;;;;107.85;12.68;;;8.30;99.90;;;;;;5066032;28;20086;-77
2024/01/25 08:50:03;;;;;;;82.43;9.95;;;8.30;99.90;;;;;;5065212;28;20027;-77
2024/01/25 08:52:29;;;;;;;100.45;10.82;;;8.40;99.90;;;;;;5056663;28;20033;-76
2024/01/25 08:54:54;;;;;;;101.13;10.85;;;8.40;99.90;;;;;;5058614;28;20627;-74
2024/01/25 08:57:20;;;;;;;88.75;9.93;;;8.50;99.90;;;;;;5057589;28;20553;-75
2024/01/25 08:59:46;;;;;;;85.40;10.32;;;8.40;99.90;;;;;;5058048;28;20096;-75
2024/01/25 09:02:11;;;;;;;94.55;11.00;;;8.40;99.90;;;;;;5057935;28;20024;-76
2024/01/25 09:04:37;;;;;;;97.25;12.02;;;8.40;99.90;;;;;;5059653;28;20025;-74
2024/01/25 09:07:03;;;;;;;95.45;10.55;;;8.40;99.90;;;;;;5057556;28;20021;-75
2024/01/25 09:09:29;;;;;;;80.80;10.38;;;8.40;99.90;;;;;;5055052;28;20021;-76
2024/01/25 09:11:55;;;;;;;98.95;11.73;;;8.40;99.90;;;;;;5052145;28;20032;-74
2024/01/25 09:14:21;;;;;;;88.05;10.25;;;8.30;99.90;;;;;;5051864;28;20138;-75
2024/01/25 09:16:47;;;;;;;83.70;9.60;;;8.30;99.90;;;;;;5054720;28;20483;-74
2024/01/25 09:19:13;;;;;;;90.32;9.85;;;8.30;99.90;;;;;;5071792;28;20113;-74
2024/01/25 09:21:41;;;;;;;84.57;9.57;;;8.40;99.90;;;;;;5073242;28;20491;-75
2024/01/25 09:24:07;;;;;;;95.55;10.63;;;8.40;99.90;;;;;;5074288;28;20111;-75
2024/01/25 09:26:33;;;;;;;88.55;10.88;;;8.40;99.90;;;;;;5073150;28;20565;-74
2024/01/25 09:28:58;;;;;;;91.88;10.18;;;8.40;99.90;;;;;;5072876;28;20024;-74
2024/01/25 09:31:24;;;;;;;83.82;10.70;;;8.40;99.90;;;;;;5071549;28;20086;-75
2024/01/25 09:33:50;;;;;;;101.35;11.90;;;8.40;99.90;;;;;;5071608;28;20407;-74
2024/01/25 09:36:17;;;;;;;86.22;10.82;;;8.40;99.90;;;;;;5070845;28;20028;-74
2024/01/25 09:38:43;;;;;;;105.32;11.85;;;8.40;99.90;;;;;;5071208;28;20463;-75
2024/01/25 09:41:08;;;;;;;84.68;9.90;;;8.40;99.90;;;;;;5071746;28;20055;-74
2024/01/25 09:43:36;;;;;;;96.93;11.10;;;8.50;99.90;;;;;;5071651;28;20071;-74
2024/01/25 09:46:02;;;;;;;88.32;12.32;;;8.50;99.90;;;;;;5071271;28;20029;-75
2024/01/25 09:48:28;;;;;;;90.13;9.90;;;8.50;99.90;;;;;;5071529;28;20067;-75
2024/01/25 09:50:55;;;;;;;78.07;9.57;;;8.60;99.90;;;;;;5071983;28;20032;-76
2024/01/25 09:53:22;;;;;;;84.95;9.65;;;8.60;99.90;;;;;;5073862;28;20029;-78
2024/01/25 09:56:02;;;;;;;97.32;9.65;;;8.50;99.90;;;;;;5074244;28;20047;-76
2024/01/25 09:58:37;;;;;;;88.30;10.63;;;8.50;99.90;;;;;;5077797;28;20099;-79
2024/01/25 10:01:03;;;;;;;93.90;9.98;;;8.50;99.90;;;;;;5073168;28;20033;-77
2024/01/25 10:03:30;;;;;;;81.82;10.05;;;8.50;99.90;;;;;;5074025;28;20023;-75
2024/01/25 10:05:56;;;;;;;81.00;10.50;;;8.50;99.90;;;;;;5076259;28;20024;-75
2024/01/25 10:08:23;;;;;;;78.75;8.98;;;8.50;99.90;;;;;;5073539;28;20021;-75
2024/01/25 10:10:49;;;;;;;79.93;8.80;;;8.60;99.90;;;;;;5073844;28;20016;-74
2024/01/25 10:13:15;;;;;;;81.25;10.02;;;8.60;99.90;;;;;;5077933;28;20028;-77
2024/01/25 10:15:41;;;;;;;86.85;10.07;;;8.60;99.90;;;;;;5076209;28;20032;-75
2024/01/25 10:18:12;;;;;;;80.47;10.48;;;8.60;99.90;;;;;;5072242;28;20069;-75
2024/01/25 10:20:44;;;;;;;81.90;9.98;;;8.70;99.90;;;;;;5073022;28;20031;-74
2024/01/25 10:23:10;;;;;;;90.10;9.50;;;8.70;99.90;;;;;;5073693;28;20043;-74
2024/01/25 10:25:37;;;;;;;79.07;9.75;;;8.60;99.90;;;;;;5090045;28;20044;-74
2024/01/25 10:28:04;;;;;;;77.05;8.57;;;8.70;99.90;;;;;;5092944;28;20017;-72
2024/01/25 10:30:33;;;;;;;69.88;9.05;;;8.60;99.90;;;;;;5091953;28;20025;-73
2024/01/25 10:32:59;;;;;;;83.90;10.15;;;8.60;99.90;;;;;;5093161;28;20004;-74
2024/01/25 10:35:26;;;;;;;82.55;9.40;;;8.70;99.90;;;;;;5092356;28;20023;-74
2024/01/25 10:37:52;;;;;;;67.05;8.77;;;8.70;99.90;;;;;;5096065;28;20032;-73
2024/01/25 10:40:21;;;;;;;73.82;8.32;;;8.70;99.90;;;;;;5095000;28;20020;-75
2024/01/25 10:42:47;;;;;;;77.10;9.00;;;8.70;99.90;;;;;;5094698;28;20036;-75
2024/01/25 10:45:13;;;;;;;76.20;9.50;;;8.70;99.90;;;;;;5084191;28;20028;-75
2024/01/25 10:47:40;;;;;;;77.97;9.07;;;8.80;99.90;;;;;;5074412;28;20062;-74
2024/01/25 10:50:10;;;;;;;62.38;7.32;;;8.80;99.90;;;;;;5074363;28;20103;-74
2024/01/25 10:52:39;;;;;;;67.35;8.15;;;8.80;99.90;;;;;;5074349;28;20074;-75
2024/01/25 10:55:05;;;;;;;86.50;10.15;;;8.70;99.90;;;;;;5074170;28;20028;-74
2024/01/25 10:57:39;;;;;;;67.80;8.00;;;8.80;99.90;;;;;;5074212;28;20028;-74
2024/01/25 11:00:14;;;;;;;81.93;9.10;;;8.80;99.90;;;;;;5074455;28;20472;-74
2024/01/25 11:02:40;;;;;;;72.10;17.70;;;8.80;99.90;;;;;;5074218;28;20126;-73
2024/01/25 11:05:14;;;;;;;58.97;7.43;;;8.80;99.90;;;;;;5074137;28;20345;-73
2024/01/25 11:07:49;;;;;;;55.05;7.47;;;8.80;99.90;;;;;;5074274;28;20027;-75
2024/01/25 11:10:20;;;;;;;51.00;6.65;;;8.80;99.90;;;;;;5074439;28;20064;-74
2024/01/25 11:13:00;;;;;;;72.35;8.95;;;8.80;99.90;;;;;;5073307;28;20020;-76
2024/01/25 11:15:34;;;;;;;68.88;8.50;;;8.80;99.90;;;;;;5072794;28;20095;-73
2024/01/25 11:18:01;;;;;;;61.40;6.85;;;8.80;99.90;;;;;;5072410;28;20032;-72
2024/01/25 11:20:29;;;;;;;67.45;7.82;;;8.80;99.90;;;;;;5072929;28;20043;-73
2024/01/25 11:23:05;;;;;;;56.00;7.57;;;8.80;99.90;;;;;;5072696;28;20021;-73
2024/01/25 11:25:32;;;;;;;71.22;9.95;;;8.80;99.90;;;;;;5072639;28;20020;-73
2024/01/25 11:28:00;;;;;;;63.53;9.02;;;8.80;99.90;;;;;;5071387;28;20032;-74
2024/01/25 11:30:29;;;;;;;72.18;10.60;;;8.80;99.90;;;;;;5073011;28;20024;-73
2024/01/25 11:32:55;;;;;;;89.95;9.45;;;8.90;99.90;;;;;;5072878;28;20055;-74
2024/01/25 11:35:21;;;;;;;82.53;9.38;;;8.90;99.90;;;;;;5073241;28;20369;-74
2024/01/25 11:37:48;;;;;;;72.47;9.07;;;8.80;99.90;;;;;;5072462;28;20108;-74
2024/01/25 11:40:15;;;;;;;73.53;8.65;;;8.80;99.90;;;;;;5072102;28;20033;-73
2024/01/25 11:42:47;;;;;;;81.82;9.98;;;8.80;99.90;;;;;;5072251;28;20394;-73
2024/01/25 11:45:14;;;;;;;79.50;10.00;;;8.90;99.90;;;;;;5072584;28;20529;-74
2024/01/25 11:47:40;;;;;;;70.10;9.38;;;9.00;99.90;;;;;;5071732;28;20033;-74
2024/01/25 11:50:07;;;;;;;64.13;9.05;;;9.00;99.90;;;;;;5072641;28;20104;-74
2024/01/25 11:52:33;;;;;;;85.05;9.15;;;9.00;99.90;;;;;;5072873;28;20017;-74
2024/01/25 11:55:09;;;;;;;70.55;8.60;;;9.00;99.90;;;;;;5072723;28;20028;-74
2024/01/25 11:57:43;;;;;;;58.58;7.68;;;9.00;99.90;;;;;;5071614;28;20082;-76
2024/01/25 12:00:12;;;;;;;70.70;9.93;;;9.00;99.90;;;;;;5053832;28;20446;-76
2024/01/25 12:02:38;;;;;;;68.45;9.57;;;9.00;99.90;;;;;;5051615;28;20518;-76
2024/01/25 12:05:05;;;;;;;68.28;8.85;;;8.90;99.90;;;;;;5049787;28;20056;-76
2024/01/25 12:07:31;;;;;;;64.88;8.15;;;9.00;99.90;;;;;;5049896;28;20025;-75
2024/01/25 12:09:57;;;;;;;74.93;9.60;;;9.10;99.90;;;;;;5052441;28;20483;-74
2024/01/25 12:12:23;;;;;;;81.78;9.88;;;9.10;99.90;;;;;;5051156;28;20399;-74
2024/01/25 12:14:49;;;;;;;62.45;7.28;;;9.10;99.90;;;;;;5051201;28;20039;-75
2024/01/25 12:17:14;;;;;;;59.30;8.63;;;9.10;99.90;;;;;;5050359;28;20024;-74
2024/01/25 12:19:40;;;;;;;84.45;10.57;;;9.10;99.90;;;;;;5050367;28;20598;-74
2024/01/25 12:22:05;;;;;;;82.97;10.18;;;9.10;99.90;;;;;;5050869;28;20210;-75
2024/01/25 12:24:31;;;;;;;71.10;9.30;;;9.10;99.90;;;;;;5050554;28;20074;-76
2024/01/25 12:26:56;;;;;;;67.40;8.60;;;9.10;99.90;;;;;;5049898;28;20029;-75
2024/01/25 12:29:23;;;;;;;73.57;8.88;;;9.10;99.90;;;;;;5051089;28;20025;-77
2024/01/25 12:31:48;;;;;;;70.38;8.85;;;9.10;99.90;;;;;;5049419;28;20017;-75